createdAt,value
2019-06-08T00:02:30.288Z,16.55
2019-06-08T00:05:01.293Z,18.45
2019-06-08T00:07:31.745Z,16.85
2019-06-08T00:10:02.292Z,17.50
2019-06-08T00:12:32.734Z,18.27
2019-06-08T00:15:03.132Z,18.92
2019-06-08T00:17:38.458Z,18.25
2019-06-08T00:20:06.010Z,18.45
2019-06-08T00:22:36.557Z,18.02
2019-06-08T00:25:07.134Z,18.48
2019-06-08T00:27:37.700Z,19.77
2019-06-08T00:30:08.898Z,18.82
2019-06-08T00:32:39.462Z,18.07
2019-06-08T00:35:10.406Z,19.00
2019-06-08T00:37:40.774Z,18.10
2019-06-08T00:40:11.686Z,20.25
2019-06-08T00:42:42.578Z,19.12
2019-06-08T00:45:15.332Z,19.48
2019-06-08T00:47:47.873Z,20.02
2019-06-08T00:50:18.791Z,18.90
2019-06-08T00:52:49.502Z,19.45
2019-06-08T00:55:19.961Z,19.50
2019-06-08T00:57:50.437Z,21.82
2019-06-08T01:00:22.573Z,22.20
2019-06-08T01:02:53.178Z,22.27
2019-06-08T01:05:24.210Z,22.00
2019-06-08T01:07:54.723Z,22.50
2019-06-08T01:10:25.664Z,22.95
2019-06-08T01:12:58.809Z,22.10
2019-06-08T01:15:33.808Z,23.47
2019-06-08T01:18:03.911Z,22.32
2019-06-08T01:20:33.438Z,24.60
2019-06-08T01:23:03.967Z,24.50
2019-06-08T01:25:34.552Z,24.45
2019-06-08T01:28:04.996Z,25.62
2019-06-08T01:30:35.451Z,30.10
2019-06-08T01:33:05.939Z,25.17
2019-06-08T01:35:46.636Z,27.20
2019-06-08T01:38:15.106Z,24.05
2019-06-08T01:40:45.553Z,24.43
2019-06-08T01:43:15.968Z,25.85
2019-06-08T01:45:46.340Z,25.75
2019-06-08T01:48:20.371Z,26.97
2019-06-08T01:50:50.213Z,25.82
2019-06-08T01:53:20.831Z,26.45
2019-06-08T01:55:51.320Z,24.02
2019-06-08T01:58:23.269Z,24.85
2019-06-08T02:00:55.592Z,25.27
2019-06-08T02:03:26.396Z,23.92
2019-06-08T02:05:57.516Z,23.77
2019-06-08T02:08:28.637Z,23.60
2019-06-08T02:10:59.290Z,24.25
2019-06-08T02:13:30.788Z,24.23
2019-06-08T02:16:01.484Z,24.63
2019-06-08T02:18:41.368Z,23.85
2019-06-08T02:21:04.063Z,23.62
2019-06-08T02:23:35.166Z,27.65
2019-06-08T02:26:05.970Z,22.98
2019-06-08T02:28:36.424Z,23.45
2019-06-08T02:31:13.518Z,23.38
2019-06-08T02:33:44.030Z,23.67
2019-06-08T02:36:14.536Z,24.77
2019-06-08T02:38:45.011Z,22.05
2019-06-08T02:41:15.448Z,21.57
2019-06-08T02:43:46.128Z,21.10
2019-06-08T02:46:16.585Z,21.42
2019-06-08T02:49:02.781Z,20.35
2019-06-08T02:51:20.544Z,19.35
2019-06-08T02:53:51.590Z,19.80
2019-06-08T02:56:23.948Z,19.82
2019-06-08T02:58:57.575Z,21.90
2019-06-08T03:01:31.430Z,18.73
2019-06-08T03:04:02.284Z,20.40
2019-06-08T03:06:34.739Z,18.80
2019-06-08T03:09:07.877Z,18.10
2019-06-08T03:11:39.202Z,18.25
2019-06-08T03:14:10.340Z,19.52
2019-06-08T03:16:41.596Z,18.62
2019-06-08T03:19:21.660Z,18.07
2019-06-08T03:21:45.059Z,17.57
2019-06-08T03:24:15.529Z,18.37
2019-06-08T03:26:47.785Z,17.60
2019-06-08T03:29:18.294Z,18.40
2019-06-08T03:31:55.784Z,17.27
2019-06-08T03:34:21.073Z,18.55
2019-06-08T03:36:56.880Z,17.60
2019-06-08T03:39:23.660Z,17.12
2019-06-08T03:41:54.137Z,17.25
2019-06-08T03:44:24.866Z,16.65
2019-06-08T03:46:55.359Z,15.88
2019-06-08T03:49:41.383Z,17.62
2019-06-08T03:51:59.533Z,15.70
2019-06-08T03:54:30.061Z,15.38
2019-06-08T03:57:00.623Z,15.72
2019-06-08T03:59:31.850Z,15.50
2019-06-08T04:02:02.398Z,15.70
2019-06-08T04:04:32.834Z,14.87
2019-06-08T04:07:03.995Z,15.45
2019-06-08T04:09:34.514Z,15.98
2019-06-08T04:12:06.576Z,16.75
2019-06-08T04:14:37.860Z,19.65
2019-06-08T04:17:08.347Z,17.05
2019-06-08T04:19:39.855Z,16.55
2019-06-08T04:22:10.540Z,16.62
2019-06-08T04:24:42.448Z,17.32
2019-06-08T04:27:13.098Z,15.68
2019-06-08T04:29:44.064Z,15.48
2019-06-08T04:32:15.713Z,15.98
2019-06-08T04:34:47.537Z,16.02
2019-06-08T04:37:18.319Z,15.88
2019-06-08T04:39:50.761Z,16.57
2019-06-08T04:42:20.847Z,16.17
2019-06-08T04:44:51.281Z,15.95
2019-06-08T04:47:21.760Z,15.90
2019-06-08T04:49:52.215Z,15.95
2019-06-08T04:52:22.976Z,15.68
2019-06-08T04:55:04.422Z,16.35
2019-06-08T04:57:34.901Z,15.65
2019-06-08T05:00:12.211Z,22.70
2019-06-08T05:02:41.511Z,17.45
2019-06-08T05:05:11.809Z,16.80
2019-06-08T05:07:43.776Z,16.17
2019-06-08T05:10:15.546Z,20.90
2019-06-08T05:12:47.701Z,20.43
2019-06-08T05:15:18.489Z,18.65
2019-06-08T05:17:49.646Z,18.48
2019-06-08T05:20:34.984Z,19.82
2019-06-08T05:22:52.748Z,24.12
2019-06-08T05:25:23.447Z,18.12
2019-06-08T05:27:53.835Z,18.62
2019-06-08T05:30:24.381Z,23.00
2019-06-08T05:32:54.833Z,18.60
2019-06-08T05:35:25.286Z,18.92
2019-06-08T05:37:55.746Z,20.77
2019-06-08T05:40:26.344Z,22.00
2019-06-08T05:42:56.849Z,23.20
2019-06-08T05:45:27.466Z,25.72
2019-06-08T05:47:57.940Z,21.20
2019-06-08T05:50:28.365Z,18.98
2019-06-08T05:52:58.872Z,16.02
2019-06-08T05:55:29.296Z,17.48
2019-06-08T05:57:59.772Z,16.52
2019-06-08T06:00:30.727Z,17.45
2019-06-08T06:03:01.387Z,19.32
2019-06-08T06:05:31.848Z,16.82
2019-06-08T06:08:02.866Z,17.07
2019-06-08T06:10:33.457Z,13.98
2019-06-08T06:13:03.907Z,15.68
2019-06-08T06:15:36.148Z,15.70
2019-06-08T06:18:06.604Z,15.32
2019-06-08T06:20:37.110Z,14.43
2019-06-08T06:23:07.667Z,12.85
2019-06-08T06:25:38.170Z,16.40
2019-06-08T06:28:08.602Z,13.35
2019-06-08T06:30:39.073Z,13.43
2019-06-08T06:33:09.593Z,11.57
2019-06-08T06:35:40.030Z,10.63
2019-06-08T06:38:10.530Z,10.63
2019-06-08T06:40:41.909Z,10.32
2019-06-08T06:43:12.577Z,11.25
2019-06-08T06:45:44.054Z,10.32
2019-06-08T06:48:14.907Z,12.20
2019-06-08T06:50:46.295Z,13.83
2019-06-08T06:53:17.301Z,12.73
2019-06-08T06:55:49.038Z,13.95
2019-06-08T06:58:19.584Z,14.80
2019-06-08T07:00:51.305Z,11.60
2019-06-08T07:03:22.426Z,9.80
2019-06-08T07:05:54.049Z,11.10
2019-06-08T07:08:25.087Z,13.95
2019-06-08T07:10:55.630Z,9.28
2019-06-08T07:13:26.089Z,10.88
2019-06-08T07:15:58.275Z,10.48
2019-06-08T07:18:28.536Z,12.78
2019-06-08T07:20:59.079Z,12.10
2019-06-08T07:23:29.739Z,9.93
2019-06-08T07:26:00.113Z,10.40
2019-06-08T07:28:30.639Z,10.75
2019-06-08T07:31:01.132Z,12.00
2019-06-08T07:33:46.746Z,17.90
2019-06-08T07:36:17.704Z,13.43
2019-06-08T07:38:48.663Z,16.17
2019-06-08T07:41:20.776Z,17.15
2019-06-08T07:43:52.261Z,16.75
2019-06-08T07:46:22.646Z,16.23
2019-06-08T07:48:54.112Z,15.38
2019-06-08T07:51:25.147Z,15.65
2019-06-08T07:53:55.959Z,14.25
2019-06-08T07:56:26.599Z,13.62
2019-06-08T07:58:57.506Z,12.20
2019-06-08T08:01:36.182Z,13.98
2019-06-08T08:04:01.258Z,13.53
2019-06-08T08:06:31.709Z,13.30
2019-06-08T08:09:02.596Z,14.40
2019-06-08T08:11:33.021Z,11.03
2019-06-08T08:14:03.616Z,11.22
2019-06-08T08:16:34.199Z,11.97
2019-06-08T08:19:05.273Z,10.32
2019-06-08T08:21:37.948Z,12.35
2019-06-08T08:24:07.832Z,12.88
2019-06-08T08:26:39.129Z,11.73
2019-06-08T08:29:09.816Z,13.95
2019-06-08T08:31:40.437Z,15.78
2019-06-08T08:34:10.881Z,10.68
2019-06-08T08:36:41.240Z,9.95
2019-06-08T08:39:11.722Z,10.78
2019-06-08T08:41:43.459Z,9.75
2019-06-08T08:44:13.984Z,9.95
2019-06-08T08:46:44.469Z,10.80
2019-06-08T08:49:18.060Z,10.23
2019-06-08T08:51:47.966Z,10.45
2019-06-08T08:54:18.486Z,10.48
2019-06-08T08:56:52.256Z,11.65
2019-06-08T08:59:21.737Z,11.30
2019-06-08T09:01:52.919Z,12.43
2019-06-08T09:04:23.717Z,12.45
2019-06-08T09:06:55.337Z,12.33
2019-06-08T09:09:28.691Z,13.13
2019-06-08T09:12:00.958Z,14.45
2019-06-08T09:14:30.555Z,16.30
2019-06-08T09:17:02.187Z,14.65
2019-06-08T09:19:33.212Z,14.05
2019-06-08T09:22:04.170Z,13.90
2019-06-08T09:24:34.877Z,12.60
2019-06-08T09:27:07.814Z,12.18
2019-06-08T09:29:38.888Z,11.45
2019-06-08T09:32:09.721Z,12.50
2019-06-08T09:34:40.297Z,11.55
2019-06-08T09:37:10.807Z,10.90
2019-06-08T09:39:41.262Z,10.58
2019-06-08T09:42:11.830Z,10.80
2019-06-08T09:44:42.596Z,10.18
2019-06-08T09:47:13.085Z,10.75
2019-06-08T09:49:43.565Z,10.25
2019-06-08T09:52:14.105Z,9.13
2019-06-08T09:54:44.522Z,9.75
2019-06-08T09:57:15.322Z,9.10
2019-06-08T09:59:48.087Z,9.03
2019-06-08T10:02:18.530Z,9.78
2019-06-08T10:04:49.243Z,9.13
2019-06-08T10:07:19.677Z,9.30
2019-06-08T10:09:50.296Z,9.23
2019-06-08T10:12:20.853Z,8.43
2019-06-08T10:14:51.327Z,9.23
2019-06-08T10:17:21.777Z,9.23
2019-06-08T10:19:52.183Z,9.38
2019-06-08T10:22:22.593Z,8.98
2019-06-08T10:24:53.151Z,9.15
2019-06-08T10:27:25.240Z,8.98
2019-06-08T10:29:58.634Z,9.48
2019-06-08T10:32:28.227Z,9.78
2019-06-08T10:35:00.338Z,9.58
2019-06-08T10:37:31.180Z,10.32
2019-06-08T10:40:03.519Z,10.38
2019-06-08T10:42:33.766Z,9.63
2019-06-08T10:45:09.572Z,10.18
2019-06-08T10:47:37.879Z,10.88
2019-06-08T10:50:14.724Z,10.70
2019-06-08T10:52:41.848Z,9.85
2019-06-08T10:55:13.668Z,10.03
2019-06-08T10:57:44.168Z,9.65
2019-06-08T11:00:23.637Z,10.35
2019-06-08T11:02:52.195Z,10.53
2019-06-08T11:05:22.670Z,10.10
2019-06-08T11:07:53.170Z,10.38
2019-06-08T11:10:24.033Z,10.85
2019-06-08T11:12:54.532Z,10.93
2019-06-08T11:15:29.187Z,13.03
2019-06-08T11:18:01.325Z,12.40
2019-06-08T11:20:30.184Z,11.38
2019-06-08T11:23:02.460Z,12.00
2019-06-08T11:25:33.998Z,13.18
2019-06-08T11:28:07.927Z,14.10
2019-06-08T11:30:38.277Z,13.55
2019-06-08T11:33:12.473Z,12.82
2019-06-08T11:35:42.997Z,13.18
2019-06-08T11:38:13.509Z,12.33
2019-06-08T11:40:43.939Z,13.75
2019-06-08T11:43:14.266Z,12.37
2019-06-08T11:45:44.749Z,11.95
2019-06-08T11:48:15.253Z,12.37
2019-06-08T11:50:48.859Z,11.48
2019-06-08T11:53:18.523Z,11.18
2019-06-08T11:55:51.171Z,10.63
2019-06-08T11:58:23.114Z,9.80
2019-06-08T12:01:01.865Z,9.90
2019-06-08T12:03:32.751Z,9.50
2019-06-08T12:06:04.246Z,8.85
2019-06-08T12:08:34.707Z,8.98
2019-06-08T12:11:09.728Z,8.80
2019-06-08T12:13:37.834Z,7.83
2019-06-08T12:16:14.925Z,7.67
2019-06-08T12:18:40.523Z,7.60
2019-06-08T12:21:13.334Z,7.20
2019-06-08T12:23:44.707Z,6.33
2019-06-08T12:26:15.271Z,6.50
2019-06-08T12:28:45.713Z,6.47
2019-06-08T12:31:21.429Z,6.30
2019-06-08T12:33:48.769Z,6.42
2019-06-08T12:36:20.532Z,5.95
2019-06-08T12:38:51.447Z,6.65
2019-06-08T12:41:21.904Z,6.10
2019-06-08T12:43:52.408Z,5.75
2019-06-08T12:46:22.869Z,5.42
2019-06-08T12:48:53.284Z,6.12
2019-06-08T12:51:23.714Z,6.42
2019-06-08T12:53:54.220Z,5.67
2019-06-08T12:56:24.680Z,5.90
2019-06-08T12:58:55.036Z,5.37
2019-06-08T13:01:27.973Z,5.08
2019-06-08T13:03:58.158Z,4.67
2019-06-08T13:06:29.074Z,4.37
2019-06-08T13:08:59.393Z,4.95
2019-06-08T13:11:29.983Z,3.60
2019-06-08T13:14:00.461Z,3.22
2019-06-08T13:16:30.981Z,3.70
2019-06-08T13:19:01.385Z,3.25
2019-06-08T13:21:35.403Z,3.02
2019-06-08T13:24:03.966Z,2.90
2019-06-08T13:26:34.376Z,2.62
2019-06-08T13:29:04.862Z,2.70
2019-06-08T13:31:35.415Z,2.30
2019-06-08T13:34:07.778Z,2.37
2019-06-08T13:36:40.279Z,2.17
2019-06-08T13:39:11.613Z,2.05
2019-06-08T13:41:42.389Z,1.92
2019-06-08T13:44:13.512Z,1.82
2019-06-08T13:46:44.004Z,1.62
2019-06-08T13:49:14.410Z,1.70
2019-06-08T13:51:44.998Z,1.85
2019-06-08T13:54:19.173Z,1.40
2019-06-08T13:56:50.596Z,1.42
2019-06-08T13:59:25.800Z,1.60
2019-06-08T14:01:53.095Z,1.60
2019-06-08T14:04:23.799Z,1.45
2019-06-08T14:06:54.571Z,1.30
2019-06-08T14:09:25.415Z,1.30
2019-06-08T14:11:57.784Z,1.22
2019-06-08T14:14:28.990Z,1.42
2019-06-08T14:16:59.699Z,1.10
2019-06-08T14:19:31.608Z,1.20
2019-06-08T14:22:02.586Z,1.57
2019-06-08T14:24:34.750Z,1.17
2019-06-08T14:27:05.380Z,1.40
2019-06-08T14:29:35.792Z,1.30
2019-06-08T14:32:07.854Z,1.07
2019-06-08T14:34:38.830Z,1.22
2019-06-08T14:37:09.670Z,1.20
2019-06-08T14:39:41.805Z,1.17
2019-06-08T14:42:12.184Z,1.45
2019-06-08T14:44:42.625Z,1.35
2019-06-08T14:47:16.284Z,1.22
2019-06-08T14:49:48.792Z,1.40
2019-06-08T14:52:22.226Z,1.10
2019-06-08T14:54:51.906Z,1.27
2019-06-08T14:57:23.370Z,0.93
2019-06-08T14:59:56.302Z,1.20
2019-06-08T15:02:28.531Z,1.25
2019-06-08T15:04:58.147Z,1.30
2019-06-08T15:07:31.352Z,1.20
2019-06-08T15:10:00.815Z,1.20
2019-06-08T15:12:31.859Z,1.25
2019-06-08T15:15:02.319Z,1.35
2019-06-08T15:17:32.828Z,1.45
2019-06-08T15:20:03.276Z,1.20
2019-06-08T15:22:33.954Z,1.22
2019-06-08T15:25:04.771Z,1.10
2019-06-08T15:27:35.397Z,1.50
2019-06-08T15:30:06.219Z,1.62
2019-06-08T15:32:38.685Z,1.50
2019-06-08T15:35:08.698Z,1.20
2019-06-08T15:37:40.837Z,1.30
2019-06-08T15:40:11.372Z,1.20
2019-06-08T15:42:41.935Z,1.52
2019-06-08T15:45:12.648Z,1.35
2019-06-08T15:47:43.107Z,1.30
2019-06-08T15:50:13.834Z,1.55
2019-06-08T15:52:44.317Z,1.07
2019-06-08T15:55:15.631Z,1.22
2019-06-08T15:57:47.021Z,1.57
2019-06-08T16:00:18.486Z,1.50
2019-06-08T16:02:49.005Z,1.20
2019-06-08T16:05:19.432Z,1.30
2019-06-08T16:07:52.828Z,1.30
2019-06-08T16:10:28.050Z,1.35
2019-06-08T16:12:58.978Z,1.30
2019-06-08T16:15:30.901Z,1.42
2019-06-08T16:18:01.813Z,1.20
2019-06-08T16:20:34.036Z,1.15
2019-06-08T16:23:04.539Z,1.30
2019-06-08T16:25:38.677Z,1.20
2019-06-08T16:28:07.441Z,1.30
2019-06-08T16:30:39.352Z,1.40
2019-06-08T16:33:09.962Z,1.65
2019-06-08T16:35:40.496Z,2.08
2019-06-08T16:38:10.988Z,2.72
2019-06-08T16:40:41.398Z,2.45
2019-06-08T16:43:11.927Z,2.12
2019-06-08T16:45:42.297Z,3.37
2019-06-08T16:48:12.840Z,2.37
2019-06-08T16:50:43.258Z,2.05
2019-06-08T16:53:13.763Z,3.80
2019-06-08T16:55:45.804Z,3.17
2019-06-08T16:58:16.553Z,3.35
2019-06-08T17:00:47.199Z,2.95
2019-06-08T17:03:17.647Z,2.62
2019-06-08T17:05:48.104Z,3.00
2019-06-08T17:08:18.606Z,2.70
2019-06-08T17:10:49.059Z,2.55
2019-06-08T17:13:19.599Z,2.75
2019-06-08T17:15:50.093Z,2.62
2019-06-08T17:18:20.745Z,2.40
2019-06-08T17:20:51.163Z,2.42
2019-06-08T17:23:21.691Z,2.00
2019-06-08T17:25:52.156Z,2.25
2019-06-08T17:28:22.622Z,1.98
2019-06-08T17:30:53.062Z,2.12
2019-06-08T17:33:23.528Z,1.95
2019-06-08T17:35:53.923Z,1.82
2019-06-08T17:38:24.447Z,2.37
2019-06-08T17:40:54.846Z,1.75
2019-06-08T17:43:25.356Z,1.90
2019-06-08T17:45:55.850Z,2.02
2019-06-08T17:48:26.272Z,1.80
2019-06-08T17:50:56.747Z,2.02
2019-06-08T17:53:27.153Z,1.62
2019-06-08T17:55:59.186Z,1.90
2019-06-08T17:58:29.647Z,1.95
2019-06-08T18:01:00.077Z,1.47
2019-06-08T18:03:30.548Z,1.95
2019-06-08T18:06:01.043Z,1.70
2019-06-08T18:08:31.501Z,1.30
2019-06-08T18:11:02.305Z,1.62
2019-06-08T18:13:34.036Z,1.60
2019-06-08T18:16:04.408Z,1.65
2019-06-08T18:18:37.620Z,1.85
2019-06-08T18:21:08.123Z,1.85
2019-06-08T18:23:40.390Z,1.40
2019-06-08T18:26:10.678Z,1.75
2019-06-08T18:28:42.687Z,1.70
2019-06-08T18:31:13.311Z,1.80
2019-06-08T18:33:45.687Z,2.22
2019-06-08T18:36:17.375Z,1.40
2019-06-08T18:38:48.639Z,1.87
2019-06-08T18:41:19.193Z,1.95
2019-06-08T18:43:52.530Z,1.60
2019-06-08T18:46:21.709Z,1.37
2019-06-08T18:48:52.513Z,1.50
2019-06-08T18:51:22.971Z,1.60
2019-06-08T18:54:07.180Z,1.72
2019-06-08T18:56:27.466Z,1.52
2019-06-08T18:58:58.318Z,1.65
2019-06-08T19:01:29.343Z,1.90
2019-06-08T19:03:59.769Z,1.77
2019-06-08T19:06:30.814Z,1.80
2019-06-08T19:09:01.632Z,1.47
2019-06-08T19:11:32.415Z,1.85
2019-06-08T19:14:03.359Z,1.85
2019-06-08T19:16:33.797Z,1.90
2019-06-08T19:19:04.399Z,1.82
2019-06-08T19:21:35.083Z,1.50
2019-06-08T19:24:09.621Z,1.70
2019-06-08T19:26:40.691Z,1.70
2019-06-08T19:29:09.888Z,1.77
2019-06-08T19:31:42.359Z,2.35
2019-06-08T19:34:12.403Z,2.33
2019-06-08T19:36:43.992Z,2.17
2019-06-08T19:39:14.973Z,1.80
2019-06-08T19:41:46.899Z,2.00
2019-06-08T19:44:18.346Z,2.10
2019-06-08T19:46:52.125Z,2.25
2019-06-08T19:49:21.763Z,2.05
2019-06-08T19:51:53.930Z,2.08
2019-06-08T19:54:24.179Z,2.30
2019-06-08T19:56:55.285Z,2.22
2019-06-08T19:59:27.385Z,2.08
2019-06-08T20:01:59.918Z,2.42
2019-06-08T20:04:30.642Z,2.22
2019-06-08T20:07:01.086Z,2.52
2019-06-08T20:09:31.498Z,2.02
2019-06-08T20:12:02.383Z,2.25
2019-06-08T20:14:32.978Z,2.08
2019-06-08T20:17:03.492Z,2.25
2019-06-08T20:19:33.881Z,2.12
2019-06-08T20:22:04.259Z,2.58
2019-06-08T20:24:37.530Z,2.37
2019-06-08T20:27:07.726Z,2.77
2019-06-08T20:29:38.912Z,2.40
2019-06-08T20:32:09.402Z,3.80
2019-06-08T20:34:40.135Z,5.45
2019-06-08T20:37:10.713Z,5.67
2019-06-08T20:39:56.012Z,5.92
2019-06-08T20:42:13.176Z,5.70
2019-06-08T20:44:43.982Z,5.70
2019-06-08T20:47:14.839Z,6.20
2019-06-08T20:49:46.924Z,5.60
2019-06-08T20:52:17.845Z,5.95
2019-06-08T20:54:50.457Z,5.62
2019-06-08T20:57:20.509Z,5.87
2019-06-08T20:59:53.429Z,6.00
2019-06-08T21:02:23.176Z,5.72
2019-06-08T21:04:54.909Z,5.83
2019-06-08T21:07:28.065Z,5.35
2019-06-08T21:09:58.271Z,5.53
2019-06-08T21:12:29.172Z,5.35
2019-06-08T21:14:59.591Z,4.65
2019-06-08T21:17:30.112Z,4.65
2019-06-08T21:20:00.513Z,4.67
2019-06-08T21:22:30.967Z,4.15
2019-06-08T21:25:01.382Z,4.67
2019-06-08T21:27:31.809Z,3.90
2019-06-08T21:30:11.857Z,4.30
2019-06-08T21:32:34.490Z,3.85
2019-06-08T21:35:07.673Z,3.85
2019-06-08T21:37:37.837Z,3.37
2019-06-08T21:40:08.985Z,3.55
2019-06-08T21:42:40.236Z,3.27
2019-06-08T21:45:10.983Z,3.62
2019-06-08T21:47:41.387Z,3.45
2019-06-08T21:50:12.114Z,3.52
2019-06-08T21:52:42.516Z,3.30
2019-06-08T21:55:13.046Z,2.60
2019-06-08T21:57:45.505Z,2.70
2019-06-08T22:00:35.941Z,3.22
2019-06-08T22:02:49.563Z,3.00
2019-06-08T22:05:20.100Z,2.80
2019-06-08T22:07:50.550Z,2.65
2019-06-08T22:10:20.950Z,3.02
2019-06-08T22:12:52.364Z,3.10
2019-06-08T22:15:23.976Z,3.70
2019-06-08T22:17:54.919Z,3.30
2019-06-08T22:20:27.379Z,3.22
2019-06-08T22:22:59.101Z,3.00
2019-06-08T22:25:32.639Z,3.65
2019-06-08T22:28:03.978Z,4.00
2019-06-08T22:30:39.990Z,4.05
2019-06-08T22:33:06.625Z,4.28
2019-06-08T22:35:37.458Z,4.58
2019-06-08T22:38:08.642Z,4.75
2019-06-08T22:40:39.171Z,5.53
2019-06-08T22:43:09.672Z,5.17
2019-06-08T22:45:40.141Z,4.70
2019-06-08T22:48:10.609Z,4.97
2019-06-08T22:50:40.938Z,5.00
2019-06-08T22:53:11.518Z,4.95
2019-06-08T22:55:41.911Z,5.08
2019-06-08T22:58:12.443Z,5.15
2019-06-08T23:00:52.036Z,5.33
2019-06-08T23:03:18.179Z,5.05
2019-06-08T23:05:47.747Z,4.92
2019-06-08T23:08:18.686Z,4.47
2019-06-08T23:10:48.997Z,5.00
2019-06-08T23:13:20.268Z,5.00
2019-06-08T23:15:50.659Z,5.25
2019-06-08T23:18:21.123Z,5.15
2019-06-08T23:20:51.516Z,5.37
2019-06-08T23:23:22.050Z,5.58
2019-06-08T23:25:52.453Z,5.30
2019-06-08T23:28:22.951Z,5.05
2019-06-08T23:31:05.883Z,5.78
2019-06-08T23:33:33.190Z,5.67
2019-06-08T23:38:37.409Z,4.75
2019-06-08T23:41:09.729Z,5.12
2019-06-08T23:43:39.972Z,4.58
2019-06-08T23:46:10.405Z,4.75
2019-06-08T23:48:41.238Z,4.22
2019-06-08T23:51:11.697Z,4.30
2019-06-08T23:53:42.159Z,3.85
2019-06-08T23:56:12.652Z,4.67
2019-06-08T23:58:43.029Z,4.35
